createdAt,value
2023-01-19T00:01:39.621Z,93.09
2023-01-19T00:04:07.639Z,93.04
2023-01-19T00:06:37.000Z,93.31
2023-01-19T00:09:05.056Z,93.11
2023-01-19T00:11:33.046Z,93.05
2023-01-19T00:14:01.019Z,92.95
2023-01-19T00:16:29.169Z,92.85
2023-01-19T00:18:57.184Z,92.70
2023-01-19T00:21:25.319Z,92.52
2023-01-19T00:23:54.757Z,92.42
2023-01-19T00:26:23.093Z,92.29
2023-01-19T00:28:52.971Z,92.14
2023-01-19T00:31:21.622Z,92.13
2023-01-19T00:33:52.535Z,92.19
2023-01-19T00:36:20.938Z,92.24
2023-01-19T00:38:48.923Z,92.29
2023-01-19T00:41:18.623Z,92.29
2023-01-19T00:43:45.665Z,92.28
2023-01-19T00:46:13.719Z,92.30
2023-01-19T00:48:41.758Z,92.22
2023-01-19T00:51:09.737Z,92.19
2023-01-19T00:53:37.727Z,92.19
2023-01-19T00:56:06.426Z,92.18
2023-01-19T00:58:35.761Z,92.20
2023-01-19T01:01:04.843Z,92.20
2023-01-19T01:03:33.376Z,92.22
2023-01-19T01:06:01.315Z,92.13
2023-01-19T01:08:29.806Z,92.04
2023-01-19T01:10:58.155Z,92.01
2023-01-19T01:13:27.874Z,91.96
2023-01-19T01:15:57.936Z,91.95
2023-01-19T01:18:26.249Z,91.86
2023-01-19T01:20:56.206Z,91.76
2023-01-19T01:23:24.356Z,91.78
2023-01-19T01:25:52.336Z,91.69
2023-01-19T01:28:20.346Z,91.68
2023-01-19T01:30:48.366Z,91.63
2023-01-19T01:33:41.394Z,91.58
2023-01-19T01:36:06.925Z,91.56
2023-01-19T01:38:34.887Z,91.50
2023-01-19T01:41:02.909Z,91.58
2023-01-19T01:43:44.777Z,91.50
2023-01-19T01:46:15.375Z,91.45
2023-01-19T01:48:47.479Z,91.44
2023-01-19T01:51:25.086Z,91.49
2023-01-19T01:53:57.555Z,91.42
2023-01-19T01:56:28.242Z,91.40
2023-01-19T01:58:56.288Z,91.38
2023-01-19T02:01:41.964Z,91.40
2023-01-19T02:04:11.715Z,91.40
2023-01-19T02:06:57.524Z,91.48
2023-01-19T02:09:44.197Z,91.45
2023-01-19T02:12:30.242Z,91.35
2023-01-19T02:14:58.225Z,91.34
2023-01-19T02:17:26.349Z,91.32
2023-01-19T02:19:55.691Z,91.30
2023-01-19T02:22:27.948Z,91.20
2023-01-19T02:24:58.876Z,91.22
2023-01-19T02:27:27.067Z,91.19
2023-01-19T02:29:55.084Z,91.17
2023-01-19T02:32:23.370Z,91.16
2023-01-19T02:34:51.940Z,91.23
2023-01-19T02:37:20.492Z,91.25
2023-01-19T02:39:51.957Z,91.28
2023-01-19T02:42:24.534Z,91.20
2023-01-19T02:44:54.406Z,91.08
2023-01-19T02:47:22.951Z,91.22
2023-01-19T02:49:57.790Z,91.33
2023-01-19T02:52:26.264Z,91.33
2023-01-19T02:55:02.510Z,91.33
2023-01-19T02:57:39.195Z,91.42
2023-01-19T03:00:18.712Z,91.72
2023-01-19T03:02:55.888Z,91.71
2023-01-19T03:05:36.039Z,91.90
2023-01-19T03:08:09.371Z,92.00
2023-01-19T03:10:44.213Z,92.00
2023-01-19T03:13:16.158Z,91.92
2023-01-19T03:15:45.376Z,91.84
2023-01-19T03:18:14.720Z,91.73
2023-01-19T03:20:43.101Z,91.76
2023-01-19T03:23:12.721Z,91.74
2023-01-19T03:25:44.070Z,91.79
2023-01-19T03:28:15.363Z,91.78
2023-01-19T03:30:46.735Z,91.71
2023-01-19T03:33:17.559Z,91.78
2023-01-19T03:35:48.843Z,91.86
2023-01-19T03:38:18.349Z,91.84
2023-01-19T03:40:47.464Z,91.82
2023-01-19T03:43:18.335Z,91.70
2023-01-19T03:45:46.783Z,91.85
2023-01-19T03:48:14.915Z,91.86
2023-01-19T03:50:42.917Z,91.87
2023-01-19T03:53:12.772Z,92.13
2023-01-19T03:55:42.233Z,92.07
2023-01-19T03:58:10.741Z,92.00
2023-01-19T04:00:43.438Z,92.08
2023-01-19T04:03:14.510Z,92.15
2023-01-19T04:05:42.817Z,92.20
2023-01-19T04:08:11.541Z,92.18
2023-01-19T04:10:39.739Z,92.01
2023-01-19T04:13:07.753Z,91.96
2023-01-19T04:15:36.057Z,92.02
2023-01-19T04:18:07.084Z,92.04
2023-01-19T04:20:35.207Z,92.06
2023-01-19T04:23:03.852Z,92.09
2023-01-19T04:25:32.121Z,92.05
2023-01-19T04:28:00.304Z,91.96
2023-01-19T04:30:29.065Z,91.83
2023-01-19T04:32:57.101Z,91.72
2023-01-19T04:35:26.435Z,91.74
2023-01-19T04:37:54.463Z,91.71
2023-01-19T04:40:22.476Z,91.71
2023-01-19T04:42:50.975Z,91.83
2023-01-19T04:45:18.980Z,91.83
2023-01-19T04:47:46.990Z,91.87
2023-01-19T04:50:15.184Z,91.91
2023-01-19T04:52:44.472Z,91.96
2023-01-19T04:55:12.799Z,91.94
2023-01-19T04:57:40.770Z,91.97
2023-01-19T05:00:10.416Z,91.98
2023-01-19T05:02:38.515Z,91.98
2023-01-19T05:05:06.826Z,92.00
2023-01-19T05:07:35.269Z,91.88
2023-01-19T05:10:05.135Z,91.85
2023-01-19T05:12:33.154Z,91.87
2023-01-19T05:15:01.542Z,91.84
2023-01-19T05:17:30.229Z,91.82
2023-01-19T05:19:58.288Z,91.92
2023-01-19T05:22:26.322Z,91.84
2023-01-19T05:24:54.415Z,91.73
2023-01-19T05:27:23.815Z,91.68
2023-01-19T05:29:52.059Z,91.65
2023-01-19T05:32:20.084Z,91.62
2023-01-19T05:34:48.173Z,91.51
2023-01-19T05:37:16.467Z,91.48
2023-01-19T05:39:44.461Z,91.56
2023-01-19T05:42:12.670Z,91.58
2023-01-19T05:44:42.137Z,91.61
2023-01-19T05:47:10.103Z,91.58
2023-01-19T05:49:38.181Z,91.61
2023-01-19T05:52:06.185Z,91.77
2023-01-19T05:54:34.252Z,91.75
2023-01-19T05:57:03.015Z,91.79
2023-01-19T05:59:30.999Z,91.83
2023-01-19T06:02:01.093Z,91.83
2023-01-19T06:04:29.261Z,94.37
2023-01-19T06:06:57.279Z,95.23
2023-01-19T06:09:25.527Z,95.40
2023-01-19T06:11:56.502Z,95.26
2023-01-19T06:14:25.130Z,94.65
2023-01-19T06:16:53.496Z,94.66
2023-01-19T06:19:23.074Z,94.33
2023-01-19T06:21:52.600Z,93.31
2023-01-19T06:24:20.686Z,93.63
2023-01-19T06:26:48.684Z,93.02
2023-01-19T06:29:17.180Z,92.58
2023-01-19T06:31:45.252Z,91.95
2023-01-19T06:34:13.295Z,91.36
2023-01-19T06:36:42.752Z,90.84
2023-01-19T06:39:11.077Z,90.69
2023-01-19T06:41:40.017Z,88.11
2023-01-19T06:44:08.161Z,87.68
2023-01-19T06:46:36.258Z,88.00
2023-01-19T06:49:04.352Z,88.42
2023-01-19T06:51:32.314Z,88.76
2023-01-19T06:54:01.888Z,89.03
2023-01-19T06:56:30.201Z,89.34
2023-01-19T06:58:58.143Z,89.57
2023-01-19T07:01:26.881Z,89.86
2023-01-19T07:03:55.016Z,89.99
2023-01-19T07:06:23.008Z,90.14
2023-01-19T07:08:51.044Z,90.32
2023-01-19T07:11:26.290Z,90.42
2023-01-19T07:13:58.749Z,90.40
2023-01-19T07:16:26.776Z,90.25
2023-01-19T07:18:54.848Z,90.35
2023-01-19T07:21:22.989Z,90.39
2023-01-19T07:23:51.485Z,90.49
2023-01-19T07:26:21.549Z,90.58
2023-01-19T07:28:50.182Z,90.64
2023-01-19T07:31:19.019Z,90.64
2023-01-19T07:33:47.931Z,90.63
2023-01-19T07:36:16.042Z,90.58
2023-01-19T07:38:44.196Z,90.62
2023-01-19T07:41:12.381Z,90.51
2023-01-19T07:43:41.980Z,90.51
2023-01-19T07:46:10.504Z,90.58
2023-01-19T07:48:38.514Z,90.57
2023-01-19T07:54:59.232Z,90.43
2023-01-19T07:57:46.734Z,90.40
2023-01-19T08:00:35.755Z,89.99
2023-01-19T08:03:05.290Z,89.69
2023-01-19T08:05:36.273Z,89.41
2023-01-19T08:08:05.616Z,89.09
2023-01-19T08:10:34.697Z,88.93
2023-01-19T08:13:03.055Z,88.60
2023-01-19T08:15:32.316Z,88.30
2023-01-19T08:18:05.879Z,87.93
2023-01-19T08:20:34.216Z,87.48
2023-01-19T08:23:04.196Z,87.15
2023-01-19T08:31:34.829Z,86.10
2023-01-19T08:34:04.493Z,85.68
2023-01-19T08:36:34.636Z,85.40
2023-01-19T08:39:02.712Z,85.01
2023-01-19T08:41:30.697Z,84.93
2023-01-19T08:43:58.965Z,84.70
2023-01-19T08:46:27.346Z,84.23
2023-01-19T08:48:57.109Z,83.95
2023-01-19T08:51:26.972Z,83.49
2023-01-19T08:53:57.054Z,83.59
2023-01-19T08:56:25.359Z,83.54
2023-01-19T08:59:07.594Z,82.62
2023-01-19T09:01:37.049Z,82.72
2023-01-19T09:04:05.565Z,82.05
2023-01-19T09:06:35.130Z,82.21
2023-01-19T09:09:05.966Z,81.77
2023-01-19T09:11:35.003Z,81.64
2023-01-19T09:14:03.496Z,81.36
2023-01-19T09:16:31.981Z,81.46
2023-01-19T09:19:00.033Z,80.96
2023-01-19T09:21:28.910Z,81.08
2023-01-19T09:23:58.430Z,80.47
2023-01-19T09:26:27.075Z,80.07
2023-01-19T09:28:55.077Z,80.50
2023-01-19T09:31:23.710Z,79.61
2023-01-19T09:33:52.025Z,79.58
2023-01-19T09:36:20.019Z,79.48
2023-01-19T09:38:48.126Z,79.21
2023-01-19T09:41:21.851Z,79.09
2023-01-19T09:43:53.418Z,78.95
2023-01-19T09:46:24.479Z,78.66
2023-01-19T09:48:56.790Z,78.35
2023-01-19T09:51:27.927Z,77.69
2023-01-19T09:54:03.545Z,77.71
2023-01-19T09:56:33.224Z,77.49
2023-01-19T09:59:02.212Z,77.39
2023-01-19T10:01:37.598Z,77.63
2023-01-19T10:04:27.647Z,77.25
2023-01-19T10:07:01.028Z,77.27
2023-01-19T10:09:33.624Z,77.13
2023-01-19T10:12:09.610Z,77.57
2023-01-19T10:14:43.093Z,76.91
2023-01-19T10:17:20.195Z,76.37
2023-01-19T10:19:53.460Z,76.73
2023-01-19T10:22:23.153Z,76.68
2023-01-19T10:24:53.869Z,76.50
2023-01-19T10:27:25.728Z,76.20
2023-01-19T10:29:53.836Z,76.06
2023-01-19T10:32:24.487Z,76.03
2023-01-19T10:34:54.666Z,76.04
2023-01-19T10:37:30.476Z,75.47
2023-01-19T10:40:02.070Z,75.14
2023-01-19T10:42:31.798Z,75.10
2023-01-19T10:45:00.531Z,75.40
2023-01-19T10:47:33.683Z,75.39
2023-01-19T10:50:08.582Z,75.69
2023-01-19T10:52:39.899Z,76.00
2023-01-19T10:55:09.778Z,76.04
2023-01-19T10:57:43.530Z,75.86
2023-01-19T11:00:31.767Z,75.64
2023-01-19T11:03:00.580Z,74.88
2023-01-19T11:05:31.055Z,74.76
2023-01-19T11:07:59.658Z,74.52
2023-01-19T11:10:29.664Z,73.93
2023-01-19T11:13:02.502Z,73.84
2023-01-19T11:15:35.989Z,73.67
2023-01-19T11:18:04.640Z,73.33
2023-01-19T11:20:43.993Z,73.41
2023-01-19T11:23:22.205Z,73.60
2023-01-19T11:25:52.570Z,73.31
2023-01-19T11:28:27.543Z,73.92
2023-01-19T11:30:58.331Z,73.62
2023-01-19T11:33:28.578Z,73.62
2023-01-19T11:36:05.346Z,73.69
2023-01-19T11:38:33.745Z,72.83
2023-01-19T11:41:04.252Z,72.72
2023-01-19T11:43:48.352Z,72.18
2023-01-19T11:46:17.564Z,72.34
2023-01-19T11:48:49.987Z,72.13
2023-01-19T11:51:20.700Z,72.38
2023-01-19T11:53:54.556Z,72.27
2023-01-19T11:56:25.038Z,72.31
2023-01-19T11:58:54.840Z,71.59
2023-01-19T12:01:29.919Z,71.64
2023-01-19T12:04:00.312Z,71.82
2023-01-19T12:06:32.569Z,72.06
2023-01-19T12:09:01.264Z,72.18
2023-01-19T12:11:33.890Z,71.90
2023-01-19T12:14:04.372Z,71.76
2023-01-19T12:16:34.026Z,72.03
2023-01-19T12:19:05.615Z,71.67
2023-01-19T12:21:33.668Z,71.48
2023-01-19T12:24:08.544Z,71.22
2023-01-19T12:26:38.451Z,71.22
2023-01-19T12:29:13.186Z,71.34
2023-01-19T12:31:43.739Z,71.44
2023-01-19T12:34:38.749Z,71.41
2023-01-19T12:37:08.490Z,71.17
2023-01-19T12:39:49.419Z,71.47
2023-01-19T12:42:21.268Z,71.41
2023-01-19T12:44:54.720Z,71.44
2023-01-19T12:47:27.348Z,71.28
2023-01-19T12:49:59.672Z,71.16
2023-01-19T12:52:34.583Z,71.20
2023-01-19T12:55:08.079Z,71.88
2023-01-19T12:57:39.240Z,72.31
2023-01-19T13:00:36.712Z,72.98
2023-01-19T13:03:35.171Z,73.01
2023-01-19T13:06:03.677Z,73.32
2023-01-19T13:08:57.497Z,73.49
2023-01-19T13:11:30.316Z,73.42
2023-01-19T13:14:36.126Z,73.70
2023-01-19T13:17:24.130Z,73.58
2023-01-19T13:19:56.990Z,73.92
2023-01-19T13:22:50.645Z,73.78
2023-01-19T13:25:29.107Z,74.02
2023-01-19T13:27:57.475Z,74.17
2023-01-19T13:30:28.319Z,74.16
2023-01-19T13:33:06.532Z,74.13
2023-01-19T13:35:57.325Z,74.00
2023-01-19T13:38:28.602Z,74.17
2023-01-19T13:41:06.554Z,74.14
2023-01-19T13:43:38.261Z,74.45
2023-01-19T13:46:09.542Z,74.63
2023-01-19T13:48:39.371Z,74.29
2023-01-19T13:51:08.915Z,74.20
2023-01-19T13:53:37.364Z,74.36
2023-01-19T13:56:25.634Z,74.01
2023-01-19T13:59:12.004Z,74.48
2023-01-19T14:01:45.001Z,74.39
2023-01-19T14:04:34.318Z,74.05
2023-01-19T14:07:03.633Z,74.37
2023-01-19T14:09:33.922Z,74.26
2023-01-19T14:12:14.586Z,74.07
2023-01-19T14:14:43.488Z,74.27
2023-01-19T14:17:22.839Z,74.44
2023-01-19T14:19:53.910Z,74.37
2023-01-19T14:22:22.234Z,74.99
2023-01-19T14:24:50.242Z,74.87
2023-01-19T14:27:21.881Z,74.58
2023-01-19T14:29:53.744Z,74.90
2023-01-19T14:32:23.734Z,74.79
2023-01-19T14:34:54.717Z,74.87
2023-01-19T14:37:26.036Z,74.83
2023-01-19T14:39:58.207Z,74.95
2023-01-19T14:42:30.520Z,75.23
2023-01-19T14:45:01.473Z,75.21
2023-01-19T14:47:38.106Z,75.32
2023-01-19T14:50:26.098Z,75.36
2023-01-19T14:52:57.389Z,75.58
2023-01-19T14:55:30.421Z,75.65
2023-01-19T14:57:59.452Z,75.77
2023-01-19T15:00:31.085Z,75.90
2023-01-19T15:03:02.615Z,75.84
2023-01-19T15:05:36.371Z,75.88
2023-01-19T15:08:07.375Z,76.05
2023-01-19T15:10:36.552Z,76.25
2023-01-19T15:13:06.362Z,76.36
2023-01-19T15:15:35.834Z,76.49
2023-01-19T15:18:05.260Z,76.84
2023-01-19T15:20:34.662Z,76.80
2023-01-19T15:23:06.964Z,77.09
2023-01-19T15:25:36.199Z,77.71
2023-01-19T15:28:11.542Z,78.12
2023-01-19T15:30:40.112Z,78.41
2023-01-19T15:33:11.787Z,78.62
2023-01-19T15:35:41.703Z,78.78
2023-01-19T15:38:10.079Z,79.04
2023-01-19T15:40:38.902Z,79.33
2023-01-19T15:43:07.183Z,79.49
2023-01-19T15:45:37.224Z,79.66
2023-01-19T15:48:06.856Z,79.87
2023-01-19T15:50:37.780Z,79.98
2023-01-19T15:53:07.649Z,80.15
2023-01-19T15:55:38.570Z,80.28
2023-01-19T15:58:07.320Z,80.29
2023-01-19T16:00:39.113Z,80.54
2023-01-19T16:03:08.829Z,80.64
2023-01-19T16:05:42.902Z,80.75
2023-01-19T16:08:31.888Z,80.86
2023-01-19T16:11:05.680Z,80.86
2023-01-19T16:13:34.186Z,80.96
2023-01-19T16:16:03.844Z,80.99
2023-01-19T16:18:32.783Z,81.14
2023-01-19T16:21:01.622Z,81.23
2023-01-19T16:23:32.444Z,81.36
2023-01-19T16:26:04.905Z,81.38
2023-01-19T16:28:34.443Z,81.43
2023-01-19T16:31:06.008Z,81.50
2023-01-19T16:33:34.123Z,81.64
2023-01-19T16:36:18.862Z,81.70
2023-01-19T16:38:50.518Z,81.68
2023-01-19T16:41:19.496Z,81.73
2023-01-19T16:43:52.799Z,81.61
2023-01-19T16:46:22.733Z,81.70
2023-01-19T16:48:51.816Z,81.67
2023-01-19T16:51:20.597Z,81.72
2023-01-19T16:53:51.502Z,81.69
2023-01-19T16:56:20.296Z,81.72
2023-01-19T16:58:48.413Z,81.67
2023-01-19T17:01:20.146Z,81.61
2023-01-19T17:03:49.208Z,81.65
2023-01-19T17:06:18.531Z,81.73
2023-01-19T17:08:46.946Z,81.70
2023-01-19T17:11:21.651Z,81.75
2023-01-19T17:13:50.561Z,81.66
2023-01-19T17:16:19.008Z,81.60
2023-01-19T17:18:47.771Z,81.56
2023-01-19T17:21:19.284Z,81.61
2023-01-19T17:23:49.294Z,81.69
2023-01-19T17:26:19.679Z,81.74
2023-01-19T17:28:48.313Z,81.66
2023-01-19T17:31:18.175Z,81.76
2023-01-19T17:33:47.476Z,81.81
2023-01-19T17:36:19.337Z,81.80
2023-01-19T17:38:48.473Z,81.70
2023-01-19T17:41:19.313Z,81.71
2023-01-19T17:43:48.111Z,81.55
2023-01-19T17:46:16.220Z,81.46
2023-01-19T17:48:46.296Z,81.26
2023-01-19T17:51:15.457Z,81.19
2023-01-19T17:53:45.252Z,81.13
2023-01-19T17:56:16.675Z,81.05
2023-01-19T17:58:46.363Z,81.10
2023-01-19T18:01:18.668Z,81.06
2023-01-19T18:03:47.447Z,81.15
2023-01-19T18:06:16.099Z,81.28
2023-01-19T18:08:46.202Z,81.37
2023-01-19T18:11:14.959Z,81.46
2023-01-19T18:13:44.893Z,81.48
2023-01-19T18:16:16.057Z,81.53
2023-01-19T18:18:45.091Z,81.49
2023-01-19T18:21:15.681Z,81.44
2023-01-19T18:23:46.010Z,81.59
2023-01-19T18:26:17.954Z,81.67
2023-01-19T18:28:46.451Z,81.80
2023-01-19T18:31:18.168Z,81.76
2023-01-19T18:33:46.526Z,81.85
2023-01-19T18:36:15.013Z,81.88
2023-01-19T18:38:43.252Z,81.94
2023-01-19T18:41:12.845Z,82.05
2023-01-19T18:43:45.060Z,82.08
2023-01-19T18:46:14.125Z,82.21
2023-01-19T18:48:43.618Z,82.70
2023-01-19T18:51:17.716Z,82.84
2023-01-19T18:53:48.627Z,82.67
2023-01-19T18:56:17.329Z,82.39
2023-01-19T18:58:45.983Z,82.65
2023-01-19T19:01:20.172Z,82.59
2023-01-19T19:03:50.545Z,82.71
2023-01-19T19:06:20.867Z,82.65
2023-01-19T19:08:50.273Z,82.76
2023-01-19T19:11:19.004Z,82.83
2023-01-19T19:13:47.262Z,82.90
2023-01-19T19:16:15.875Z,83.03
2023-01-19T19:18:44.574Z,83.13
2023-01-19T19:21:14.333Z,83.24
2023-01-19T19:23:43.157Z,83.36
2023-01-19T19:26:15.800Z,83.53
2023-01-19T19:28:45.684Z,83.56
2023-01-19T19:31:15.571Z,83.63
2023-01-19T19:33:44.445Z,83.72
2023-01-19T19:36:13.848Z,83.77
2023-01-19T19:38:44.395Z,83.90
2023-01-19T19:41:13.607Z,83.95
2023-01-19T19:43:41.823Z,84.01
2023-01-19T19:46:12.367Z,84.16
2023-01-19T19:48:41.451Z,84.25
2023-01-19T19:51:17.943Z,84.39
2023-01-19T19:53:51.320Z,84.51
2023-01-19T19:56:21.966Z,84.63
2023-01-19T19:58:51.411Z,84.75
2023-01-19T20:01:21.249Z,84.83
2023-01-19T20:03:50.216Z,84.98
2023-01-19T20:06:22.639Z,85.02
2023-01-19T20:08:53.840Z,85.07
2023-01-19T20:11:24.352Z,85.25
2023-01-19T20:13:53.109Z,85.30
2023-01-19T20:16:23.232Z,85.45
2023-01-19T20:18:55.394Z,85.51
2023-01-19T20:21:24.629Z,85.53
2023-01-19T20:23:55.398Z,85.61
2023-01-19T20:26:26.499Z,85.73
2023-01-19T20:28:55.225Z,85.88
2023-01-19T20:31:29.657Z,86.07
2023-01-19T20:34:00.460Z,86.29
2023-01-19T20:36:29.958Z,86.42
2023-01-19T20:39:10.132Z,86.58
2023-01-19T20:41:45.811Z,86.72
2023-01-19T20:44:16.772Z,86.81
2023-01-19T20:46:46.453Z,86.86
2023-01-19T20:49:14.926Z,86.99
2023-01-19T20:51:45.297Z,87.06
2023-01-19T20:54:17.306Z,87.22
2023-01-19T20:56:46.551Z,87.36
2023-01-19T20:59:19.204Z,87.46
2023-01-19T21:01:50.029Z,87.55
2023-01-19T21:04:18.438Z,87.61
2023-01-19T21:06:47.303Z,87.67
2023-01-19T21:09:18.675Z,87.75
2023-01-19T21:11:47.269Z,87.77
2023-01-19T21:14:16.639Z,87.89
2023-01-19T21:16:44.910Z,87.93
2023-01-19T21:19:13.504Z,88.05
2023-01-19T21:21:41.551Z,88.18
2023-01-19T21:24:11.733Z,88.36
2023-01-19T21:26:41.920Z,88.55
2023-01-19T21:29:13.493Z,88.74
2023-01-19T21:31:41.931Z,88.98
2023-01-19T21:34:11.465Z,89.26
2023-01-19T21:36:47.413Z,89.43
2023-01-19T21:39:17.347Z,89.65
2023-01-19T21:41:47.022Z,89.80
2023-01-19T21:44:15.674Z,90.04
2023-01-19T21:46:44.223Z,90.10
2023-01-19T21:49:16.056Z,90.28
2023-01-19T21:51:47.884Z,90.48
2023-01-19T21:54:17.840Z,90.56
2023-01-19T21:56:47.647Z,90.69
2023-01-19T21:59:16.616Z,90.74
2023-01-19T22:01:46.730Z,90.85
2023-01-19T22:04:14.948Z,90.91
2023-01-19T22:06:43.924Z,90.95
2023-01-19T22:09:12.007Z,91.01
2023-01-19T22:11:40.390Z,91.09
2023-01-19T22:14:11.404Z,91.12
2023-01-19T22:16:39.424Z,91.15
2023-01-19T22:19:08.544Z,91.21
2023-01-19T22:21:36.812Z,91.29
2023-01-19T22:24:06.115Z,91.35
2023-01-19T22:26:34.969Z,91.48
2023-01-19T22:29:07.032Z,91.48
2023-01-19T22:31:36.785Z,91.59
2023-01-19T22:34:05.089Z,91.64
2023-01-19T22:36:35.235Z,91.65
2023-01-19T22:39:05.483Z,91.77
2023-01-19T22:41:38.304Z,91.84
2023-01-19T22:44:08.656Z,91.84
2023-01-19T22:46:39.060Z,91.89
2023-01-19T22:49:10.030Z,91.89
2023-01-19T22:51:40.387Z,91.88
2023-01-19T22:54:09.238Z,91.92
2023-01-19T22:56:39.033Z,91.91
2023-01-19T22:59:08.005Z,91.88
2023-01-19T23:01:38.940Z,91.89
2023-01-19T23:04:08.633Z,91.89
2023-01-19T23:06:37.816Z,91.90
2023-01-19T23:09:09.084Z,91.89
2023-01-19T23:11:39.376Z,91.91
2023-01-19T23:14:09.740Z,91.93
2023-01-19T23:16:40.167Z,91.87
2023-01-19T23:19:08.349Z,91.90
2023-01-19T23:21:37.114Z,91.87
2023-01-19T23:24:06.008Z,91.87
2023-01-19T23:26:38.207Z,91.85
2023-01-19T23:29:08.378Z,91.84
2023-01-19T23:31:38.484Z,91.90
2023-01-19T23:34:09.838Z,91.88
2023-01-19T23:36:42.019Z,91.92
2023-01-19T23:39:15.146Z,91.94
2023-01-19T23:41:43.479Z,91.95
2023-01-19T23:44:12.408Z,91.93
2023-01-19T23:46:40.788Z,91.94
2023-01-19T23:49:10.257Z,91.91
2023-01-19T23:51:38.980Z,91.90
2023-01-19T23:54:07.305Z,91.86
2023-01-19T23:56:38.413Z,91.79
2023-01-19T23:59:09.553Z,91.77
